sensor_id;sensor_type;location;lat;lon;timestamp;P1;durP1;ratioP1;P2;durP2;ratioP2
47429;SDS011;33181;49.246;7.372;2023-01-13T00:01:17;5.57;;;3.03;;
47429;SDS011;33181;49.246;7.372;2023-01-13T00:03:46;7.60;;;2.87;;
47429;SDS011;33181;49.246;7.372;2023-01-13T00:06:13;10.03;;;3.50;;
47429;SDS011;33181;49.246;7.372;2023-01-13T00:08:46;5.30;;;3.07;;
47429;SDS011;33181;49.246;7.372;2023-01-13T00:11:16;15.10;;;3.30;;
47429;SDS011;33181;49.246;7.372;2023-01-13T00:13:44;5.17;;;2.97;;
47429;SDS011;33181;49.246;7.372;2023-01-13T00:16:11;4.90;;;2.90;;
47429;SDS011;33181;49.246;7.372;2023-01-13T00:18:41;5.43;;;2.90;;
47429;SDS011;33181;49.246;7.372;2023-01-13T00:21:12;5.80;;;3.20;;
47429;SDS011;33181;49.246;7.372;2023-01-13T00:23:40;8.40;;;3.30;;
47429;SDS011;33181;49.246;7.372;2023-01-13T00:26:08;4.80;;;2.97;;
47429;SDS011;33181;49.246;7.372;2023-01-13T00:28:38;5.40;;;3.10;;
47429;SDS011;33181;49.246;7.372;2023-01-13T00:31:14;7.03;;;4.00;;
47429;SDS011;33181;49.246;7.372;2023-01-13T00:33:42;5.47;;;3.30;;
47429;SDS011;33181;49.246;7.372;2023-01-13T00:36:09;7.27;;;3.20;;
47429;SDS011;33181;49.246;7.372;2023-01-13T00:38:38;7.07;;;3.40;;
47429;SDS011;33181;49.246;7.372;2023-01-13T00:41:10;6.07;;;3.20;;
47429;SDS011;33181;49.246;7.372;2023-01-13T00:43:39;5.43;;;2.93;;
47429;SDS011;33181;49.246;7.372;2023-01-13T00:46:05;7.40;;;3.33;;
47429;SDS011;33181;49.246;7.372;2023-01-13T00:48:33;6.10;;;2.90;;
47429;SDS011;33181;49.246;7.372;2023-01-13T00:51:04;6.77;;;3.03;;
47429;SDS011;33181;49.246;7.372;2023-01-13T00:53:37;10.40;;;3.40;;
47429;SDS011;33181;49.246;7.372;2023-01-13T00:56:06;6.00;;;3.30;;
47429;SDS011;33181;49.246;7.372;2023-01-13T00:58:45;6.77;;;3.03;;
47429;SDS011;33181;49.246;7.372;2023-01-13T01:01:19;3.87;;;3.03;;
47429;SDS011;33181;49.246;7.372;2023-01-13T01:03:47;5.57;;;2.90;;
47429;SDS011;33181;49.246;7.372;2023-01-13T01:06:16;6.53;;;3.20;;
47429;SDS011;33181;49.246;7.372;2023-01-13T01:08:44;4.40;;;2.70;;
47429;SDS011;33181;49.246;7.372;2023-01-13T01:11:12;6.33;;;3.10;;
47429;SDS011;33181;49.246;7.372;2023-01-13T01:13:42;8.00;;;3.00;;
47429;SDS011;33181;49.246;7.372;2023-01-13T01:16:10;7.00;;;3.13;;
47429;SDS011;33181;49.246;7.372;2023-01-13T01:18:39;6.47;;;3.03;;
47429;SDS011;33181;49.246;7.372;2023-01-13T01:21:09;7.20;;;2.83;;
47429;SDS011;33181;49.246;7.372;2023-01-13T01:23:36;6.03;;;3.00;;
47429;SDS011;33181;49.246;7.372;2023-01-13T01:28:36;4.57;;;2.70;;
47429;SDS011;33181;49.246;7.372;2023-01-13T01:31:05;3.80;;;2.60;;
47429;SDS011;33181;49.246;7.372;2023-01-13T01:33:34;6.10;;;2.67;;
47429;SDS011;33181;49.246;7.372;2023-01-13T01:36:00;5.20;;;2.37;;
47429;SDS011;33181;49.246;7.372;2023-01-13T01:38:28;3.60;;;2.43;;
47429;SDS011;33181;49.246;7.372;2023-01-13T01:40:53;6.40;;;2.50;;
47429;SDS011;33181;49.246;7.372;2023-01-13T01:43:20;2.70;;;2.20;;
47429;SDS011;33181;49.246;7.372;2023-01-13T01:46:27;3.83;;;2.50;;
47429;SDS011;33181;49.246;7.372;2023-01-13T01:48:55;2.67;;;2.27;;
47429;SDS011;33181;49.246;7.372;2023-01-13T01:51:41;3.57;;;2.50;;
47429;SDS011;33181;49.246;7.372;2023-01-13T01:54:21;3.97;;;2.50;;
47429;SDS011;33181;49.246;7.372;2023-01-13T01:57:20;3.20;;;2.60;;
47429;SDS011;33181;49.246;7.372;2023-01-13T01:59:51;3.77;;;2.60;;
47429;SDS011;33181;49.246;7.372;2023-01-13T02:02:17;3.73;;;2.60;;
47429;SDS011;33181;49.246;7.372;2023-01-13T02:04:45;3.60;;;2.70;;
47429;SDS011;33181;49.246;7.372;2023-01-13T02:07:18;5.03;;;2.57;;
47429;SDS011;33181;49.246;7.372;2023-01-13T02:09:47;3.80;;;2.60;;
47429;SDS011;33181;49.246;7.372;2023-01-13T02:12:14;3.70;;;2.50;;
47429;SDS011;33181;49.246;7.372;2023-01-13T02:15:00;5.07;;;2.67;;
47429;SDS011;33181;49.246;7.372;2023-01-13T02:20:34;4.20;;;2.50;;
47429;SDS011;33181;49.246;7.372;2023-01-13T02:31:46;3.27;;;2.40;;
47429;SDS011;33181;49.246;7.372;2023-01-13T02:34:23;4.07;;;2.53;;
47429;SDS011;33181;49.246;7.372;2023-01-13T02:37:08;4.20;;;2.73;;
47429;SDS011;33181;49.246;7.372;2023-01-13T02:39:55;4.37;;;2.80;;
47429;SDS011;33181;49.246;7.372;2023-01-13T02:42:31;4.20;;;2.60;;
47429;SDS011;33181;49.246;7.372;2023-01-13T02:45:27;3.50;;;2.70;;
47429;SDS011;33181;49.246;7.372;2023-01-13T02:48:08;5.37;;;3.03;;
47429;SDS011;33181;49.246;7.372;2023-01-13T02:50:38;4.07;;;2.90;;
47429;SDS011;33181;49.246;7.372;2023-01-13T02:53:19;3.87;;;2.80;;
47429;SDS011;33181;49.246;7.372;2023-01-13T02:55:58;4.10;;;3.00;;
47429;SDS011;33181;49.246;7.372;2023-01-13T02:58:28;4.77;;;3.17;;
47429;SDS011;33181;49.246;7.372;2023-01-13T03:00:56;6.27;;;2.87;;
47429;SDS011;33181;49.246;7.372;2023-01-13T03:03:22;5.53;;;3.50;;
47429;SDS011;33181;49.246;7.372;2023-01-13T03:05:50;5.40;;;3.20;;
47429;SDS011;33181;49.246;7.372;2023-01-13T03:11:18;6.13;;;3.00;;
47429;SDS011;33181;49.246;7.372;2023-01-13T03:19:14;6.03;;;3.43;;
47429;SDS011;33181;49.246;7.372;2023-01-13T03:22:14;5.60;;;3.30;;
47429;SDS011;33181;49.246;7.372;2023-01-13T03:25:33;6.33;;;3.10;;
47429;SDS011;33181;49.246;7.372;2023-01-13T03:28:01;5.50;;;3.43;;
47429;SDS011;33181;49.246;7.372;2023-01-13T03:30:36;5.37;;;3.17;;
47429;SDS011;33181;49.246;7.372;2023-01-13T03:33:10;4.17;;;3.00;;
47429;SDS011;33181;49.246;7.372;2023-01-13T03:35:48;4.43;;;2.87;;
47429;SDS011;33181;49.246;7.372;2023-01-13T03:38:32;3.97;;;2.60;;
47429;SDS011;33181;49.246;7.372;2023-01-13T03:43:59;5.07;;;3.70;;
47429;SDS011;33181;49.246;7.372;2023-01-13T03:46:56;3.80;;;2.97;;
47429;SDS011;33181;49.246;7.372;2023-01-13T03:49:42;5.60;;;3.40;;
47429;SDS011;33181;49.246;7.372;2023-01-13T03:52:15;3.70;;;2.77;;
47429;SDS011;33181;49.246;7.372;2023-01-13T03:54:53;4.67;;;2.83;;
47429;SDS011;33181;49.246;7.372;2023-01-13T03:57:30;3.93;;;2.83;;
47429;SDS011;33181;49.246;7.372;2023-01-13T04:00:03;4.73;;;3.10;;
47429;SDS011;33181;49.246;7.372;2023-01-13T04:02:44;4.33;;;2.60;;
47429;SDS011;33181;49.246;7.372;2023-01-13T04:05:21;4.33;;;2.47;;
47429;SDS011;33181;49.246;7.372;2023-01-13T04:07:55;3.97;;;2.93;;
47429;SDS011;33181;49.246;7.372;2023-01-13T04:10:40;4.83;;;2.63;;
47429;SDS011;33181;49.246;7.372;2023-01-13T04:13:15;4.00;;;2.67;;
47429;SDS011;33181;49.246;7.372;2023-01-13T04:15:45;3.60;;;2.70;;
47429;SDS011;33181;49.246;7.372;2023-01-13T04:18:20;2.97;;;2.60;;
47429;SDS011;33181;49.246;7.372;2023-01-13T04:20:52;3.53;;;2.63;;
47429;SDS011;33181;49.246;7.372;2023-01-13T04:23:20;3.07;;;2.57;;
47429;SDS011;33181;49.246;7.372;2023-01-13T04:25:46;4.40;;;2.73;;
47429;SDS011;33181;49.246;7.372;2023-01-13T04:28:13;3.83;;;2.57;;
47429;SDS011;33181;49.246;7.372;2023-01-13T04:30:40;4.30;;;2.77;;
47429;SDS011;33181;49.246;7.372;2023-01-13T04:33:07;3.33;;;2.67;;
47429;SDS011;33181;49.246;7.372;2023-01-13T04:35:33;5.07;;;2.60;;
47429;SDS011;33181;49.246;7.372;2023-01-13T04:38:03;2.50;;;2.20;;
47429;SDS011;33181;49.246;7.372;2023-01-13T04:40:33;3.33;;;2.57;;
47429;SDS011;33181;49.246;7.372;2023-01-13T04:42:59;3.77;;;2.47;;
47429;SDS011;33181;49.246;7.372;2023-01-13T04:45:25;8.20;;;2.70;;
47429;SDS011;33181;49.246;7.372;2023-01-13T04:47:51;4.90;;;2.60;;
47429;SDS011;33181;49.246;7.372;2023-01-13T04:50:17;3.10;;;2.40;;
47429;SDS011;33181;49.246;7.372;2023-01-13T04:52:44;5.73;;;2.60;;
47429;SDS011;33181;49.246;7.372;2023-01-13T04:55:11;3.47;;;2.40;;
47429;SDS011;33181;49.246;7.372;2023-01-13T04:57:37;2.70;;;2.33;;
47429;SDS011;33181;49.246;7.372;2023-01-13T05:00:06;3.43;;;2.30;;
47429;SDS011;33181;49.246;7.372;2023-01-13T05:02:33;3.83;;;2.57;;
47429;SDS011;33181;49.246;7.372;2023-01-13T05:04:59;3.67;;;2.23;;
47429;SDS011;33181;49.246;7.372;2023-01-13T05:07:25;4.50;;;2.30;;
47429;SDS011;33181;49.246;7.372;2023-01-13T05:09:51;3.10;;;2.60;;
47429;SDS011;33181;49.246;7.372;2023-01-13T05:12:16;3.80;;;2.40;;
47429;SDS011;33181;49.246;7.372;2023-01-13T05:15:01;3.27;;;2.33;;
47429;SDS011;33181;49.246;7.372;2023-01-13T05:17:46;3.00;;;2.40;;
47429;SDS011;33181;49.246;7.372;2023-01-13T05:20:12;4.93;;;2.47;;
47429;SDS011;33181;49.246;7.372;2023-01-13T05:22:38;2.90;;;2.10;;
47429;SDS011;33181;49.246;7.372;2023-01-13T05:25:22;3.47;;;2.40;;
47429;SDS011;33181;49.246;7.372;2023-01-13T05:27:55;3.57;;;2.37;;
47429;SDS011;33181;49.246;7.372;2023-01-13T05:30:24;9.33;;;2.60;;
47429;SDS011;33181;49.246;7.372;2023-01-13T05:32:53;3.93;;;2.27;;
47429;SDS011;33181;49.246;7.372;2023-01-13T05:35:19;3.53;;;2.43;;
47429;SDS011;33181;49.246;7.372;2023-01-13T05:37:45;3.07;;;2.30;;
47429;SDS011;33181;49.246;7.372;2023-01-13T05:40:12;3.30;;;2.23;;
47429;SDS011;33181;49.246;7.372;2023-01-13T05:43:10;3.13;;;2.23;;
47429;SDS011;33181;49.246;7.372;2023-01-13T05:45:51;5.90;;;2.53;;
47429;SDS011;33181;49.246;7.372;2023-01-13T05:48:37;3.70;;;2.10;;
47429;SDS011;33181;49.246;7.372;2023-01-13T05:51:06;2.07;;;1.80;;
47429;SDS011;33181;49.246;7.372;2023-01-13T05:53:34;3.30;;;1.80;;
47429;SDS011;33181;49.246;7.372;2023-01-13T05:56:04;2.03;;;1.80;;
47429;SDS011;33181;49.246;7.372;2023-01-13T05:58:31;3.23;;;1.80;;
47429;SDS011;33181;49.246;7.372;2023-01-13T06:00:59;3.00;;;1.80;;
47429;SDS011;33181;49.246;7.372;2023-01-13T06:03:29;2.40;;;2.00;;
47429;SDS011;33181;49.246;7.372;2023-01-13T06:05:55;3.03;;;1.80;;
47429;SDS011;33181;49.246;7.372;2023-01-13T06:08:25;1.90;;;1.70;;
47429;SDS011;33181;49.246;7.372;2023-01-13T06:10:51;2.07;;;1.80;;
47429;SDS011;33181;49.246;7.372;2023-01-13T06:13:17;5.07;;;2.13;;
47429;SDS011;33181;49.246;7.372;2023-01-13T06:15:42;4.87;;;2.60;;
47429;SDS011;33181;49.246;7.372;2023-01-13T06:18:08;3.20;;;2.27;;
47429;SDS011;33181;49.246;7.372;2023-01-13T06:20:34;5.43;;;2.60;;
47429;SDS011;33181;49.246;7.372;2023-01-13T06:23:00;2.60;;;2.03;;
47429;SDS011;33181;49.246;7.372;2023-01-13T06:27:53;2.83;;;1.90;;
47429;SDS011;33181;49.246;7.372;2023-01-13T06:30:22;3.80;;;2.10;;
47429;SDS011;33181;49.246;7.372;2023-01-13T06:32:49;2.73;;;2.13;;
47429;SDS011;33181;49.246;7.372;2023-01-13T06:35:19;3.33;;;2.60;;
47429;SDS011;33181;49.246;7.372;2023-01-13T06:37:52;5.40;;;2.17;;
47429;SDS011;33181;49.246;7.372;2023-01-13T06:40:20;2.87;;;1.80;;
47429;SDS011;33181;49.246;7.372;2023-01-13T06:42:47;5.30;;;2.00;;
47429;SDS011;33181;49.246;7.372;2023-01-13T06:45:33;2.97;;;1.80;;
47429;SDS011;33181;49.246;7.372;2023-01-13T06:47:59;2.30;;;1.70;;
47429;SDS011;33181;49.246;7.372;2023-01-13T06:50:25;2.90;;;1.70;;
47429;SDS011;33181;49.246;7.372;2023-01-13T06:52:52;3.33;;;1.60;;
47429;SDS011;33181;49.246;7.372;2023-01-13T06:55:18;2.77;;;1.60;;
47429;SDS011;33181;49.246;7.372;2023-01-13T06:57:51;10.57;;;3.30;;
47429;SDS011;33181;49.246;7.372;2023-01-13T07:00:20;2.60;;;1.93;;
47429;SDS011;33181;49.246;7.372;2023-01-13T07:02:47;6.73;;;3.70;;
47429;SDS011;33181;49.246;7.372;2023-01-13T07:05:13;5.97;;;3.70;;
47429;SDS011;33181;49.246;7.372;2023-01-13T07:07:39;31.23;;;18.37;;
47429;SDS011;33181;49.246;7.372;2023-01-13T07:10:06;7.53;;;3.43;;
47429;SDS011;33181;49.246;7.372;2023-01-13T07:12:36;4.20;;;2.93;;
47429;SDS011;33181;49.246;7.372;2023-01-13T07:15:24;5.37;;;2.50;;
47429;SDS011;33181;49.246;7.372;2023-01-13T07:17:53;4.60;;;1.83;;
47429;SDS011;33181;49.246;7.372;2023-01-13T07:20:18;6.13;;;2.77;;
47429;SDS011;33181;49.246;7.372;2023-01-13T07:22:44;8.90;;;2.50;;
47429;SDS011;33181;49.246;7.372;2023-01-13T07:25:10;4.80;;;2.40;;
47429;SDS011;33181;49.246;7.372;2023-01-13T07:27:36;3.33;;;1.90;;
47429;SDS011;33181;49.246;7.372;2023-01-13T07:30:02;3.93;;;2.20;;
47429;SDS011;33181;49.246;7.372;2023-01-13T07:32:30;5.13;;;2.40;;
47429;SDS011;33181;49.246;7.372;2023-01-13T07:34:57;3.97;;;2.40;;
47429;SDS011;33181;49.246;7.372;2023-01-13T07:37:28;4.43;;;2.33;;
47429;SDS011;33181;49.246;7.372;2023-01-13T07:39:56;3.43;;;1.97;;
47429;SDS011;33181;49.246;7.372;2023-01-13T07:42:21;7.20;;;2.27;;
47429;SDS011;33181;49.246;7.372;2023-01-13T07:45:06;6.67;;;2.27;;
47429;SDS011;33181;49.246;7.372;2023-01-13T07:47:33;6.33;;;1.90;;
47429;SDS011;33181;49.246;7.372;2023-01-13T07:49:58;5.90;;;1.90;;
47429;SDS011;33181;49.246;7.372;2023-01-13T07:52:24;7.87;;;3.77;;
47429;SDS011;33181;49.246;7.372;2023-01-13T07:54:50;7.70;;;2.43;;
47429;SDS011;33181;49.246;7.372;2023-01-13T07:57:15;6.60;;;2.13;;
47429;SDS011;33181;49.246;7.372;2023-01-13T07:59:41;6.30;;;2.30;;
47429;SDS011;33181;49.246;7.372;2023-01-13T08:02:11;9.23;;;3.03;;
47429;SDS011;33181;49.246;7.372;2023-01-13T08:04:37;6.03;;;2.87;;
47429;SDS011;33181;49.246;7.372;2023-01-13T08:07:04;7.97;;;3.30;;
47429;SDS011;33181;49.246;7.372;2023-01-13T08:09:30;3.70;;;2.37;;
47429;SDS011;33181;49.246;7.372;2023-01-13T08:11:56;3.60;;;2.07;;
47429;SDS011;33181;49.246;7.372;2023-01-13T08:14:41;5.83;;;2.20;;
47429;SDS011;33181;49.246;7.372;2023-01-13T08:17:07;9.63;;;4.40;;
47429;SDS011;33181;49.246;7.372;2023-01-13T08:19:33;7.60;;;2.83;;
47429;SDS011;33181;49.246;7.372;2023-01-13T08:22:00;8.10;;;3.57;;
47429;SDS011;33181;49.246;7.372;2023-01-13T08:24:26;7.90;;;4.90;;
47429;SDS011;33181;49.246;7.372;2023-01-13T08:26:51;10.47;;;3.40;;
47429;SDS011;33181;49.246;7.372;2023-01-13T08:29:18;10.97;;;4.33;;
47429;SDS011;33181;49.246;7.372;2023-01-13T08:31:44;5.20;;;3.30;;
47429;SDS011;33181;49.246;7.372;2023-01-13T08:34:09;4.87;;;2.73;;
47429;SDS011;33181;49.246;7.372;2023-01-13T08:36:35;9.23;;;2.93;;
47429;SDS011;33181;49.246;7.372;2023-01-13T08:39:01;8.00;;;2.40;;
47429;SDS011;33181;49.246;7.372;2023-01-13T08:41:27;6.73;;;2.20;;
47429;SDS011;33181;49.246;7.372;2023-01-13T08:44:12;10.90;;;2.20;;
47429;SDS011;33181;49.246;7.372;2023-01-13T08:46:37;4.53;;;2.53;;
47429;SDS011;33181;49.246;7.372;2023-01-13T08:49:03;10.57;;;2.70;;
47429;SDS011;33181;49.246;7.372;2023-01-13T08:51:29;4.13;;;2.40;;
47429;SDS011;33181;49.246;7.372;2023-01-13T08:53:54;7.20;;;2.73;;
47429;SDS011;33181;49.246;7.372;2023-01-13T08:56:20;6.67;;;2.40;;
47429;SDS011;33181;49.246;7.372;2023-01-13T08:58:46;9.80;;;2.63;;
47429;SDS011;33181;49.246;7.372;2023-01-13T09:01:12;7.67;;;2.60;;
47429;SDS011;33181;49.246;7.372;2023-01-13T09:03:43;9.23;;;2.60;;
47429;SDS011;33181;49.246;7.372;2023-01-13T09:06:09;6.63;;;2.50;;
47429;SDS011;33181;49.246;7.372;2023-01-13T09:08:35;10.03;;;2.70;;
47429;SDS011;33181;49.246;7.372;2023-01-13T09:11:00;7.53;;;2.60;;
47429;SDS011;33181;49.246;7.372;2023-01-13T09:13:46;6.97;;;2.77;;
47429;SDS011;33181;49.246;7.372;2023-01-13T09:16:12;8.67;;;3.20;;
47429;SDS011;33181;49.246;7.372;2023-01-13T09:18:37;10.23;;;3.73;;
47429;SDS011;33181;49.246;7.372;2023-01-13T09:21:03;11.17;;;3.20;;
47429;SDS011;33181;49.246;7.372;2023-01-13T09:23:29;10.27;;;2.63;;
47429;SDS011;33181;49.246;7.372;2023-01-13T09:25:55;10.07;;;3.40;;
47429;SDS011;33181;49.246;7.372;2023-01-13T09:28:21;7.80;;;2.47;;
47429;SDS011;33181;49.246;7.372;2023-01-13T09:30:46;6.07;;;2.40;;
47429;SDS011;33181;49.246;7.372;2023-01-13T09:33:12;7.70;;;2.60;;
47429;SDS011;33181;49.246;7.372;2023-01-13T09:35:56;8.70;;;2.80;;
47429;SDS011;33181;49.246;7.372;2023-01-13T09:38:23;9.40;;;2.60;;
47429;SDS011;33181;49.246;7.372;2023-01-13T09:40:48;7.20;;;2.90;;
47429;SDS011;33181;49.246;7.372;2023-01-13T09:43:22;5.90;;;2.30;;
47429;SDS011;33181;49.246;7.372;2023-01-13T09:46:19;8.40;;;2.80;;
47429;SDS011;33181;49.246;7.372;2023-01-13T09:52:14;7.07;;;2.70;;
47429;SDS011;33181;49.246;7.372;2023-01-13T09:55:01;9.07;;;2.97;;
47429;SDS011;33181;49.246;7.372;2023-01-13T09:57:56;9.07;;;2.50;;
47429;SDS011;33181;49.246;7.372;2023-01-13T10:00:22;11.40;;;2.70;;
47429;SDS011;33181;49.246;7.372;2023-01-13T10:08:23;9.53;;;2.80;;
47429;SDS011;33181;49.246;7.372;2023-01-13T10:10:55;7.50;;;2.60;;
47429;SDS011;33181;49.246;7.372;2023-01-13T10:13:57;8.40;;;2.80;;
47429;SDS011;33181;49.246;7.372;2023-01-13T10:19:20;7.60;;;2.63;;
47429;SDS011;33181;49.246;7.372;2023-01-13T10:22:13;10.93;;;3.00;;
47429;SDS011;33181;49.246;7.372;2023-01-13T10:27:44;7.93;;;2.70;;
47429;SDS011;33181;49.246;7.372;2023-01-13T10:32:54;7.30;;;2.40;;
47429;SDS011;33181;49.246;7.372;2023-01-13T10:41:04;8.53;;;2.50;;
47429;SDS011;33181;49.246;7.372;2023-01-13T10:43:35;13.77;;;3.60;;
47429;SDS011;33181;49.246;7.372;2023-01-13T10:46:05;9.43;;;3.00;;
47429;SDS011;33181;49.246;7.372;2023-01-13T10:48:37;12.00;;;3.20;;
47429;SDS011;33181;49.246;7.372;2023-01-13T10:53:52;12.03;;;3.47;;
47429;SDS011;33181;49.246;7.372;2023-01-13T10:56:24;12.77;;;2.90;;
47429;SDS011;33181;49.246;7.372;2023-01-13T11:02:32;11.10;;;2.80;;
47429;SDS011;33181;49.246;7.372;2023-01-13T11:04:35;11.77;;;2.73;;
47429;SDS011;33181;49.246;7.372;2023-01-13T11:07:05;7.20;;;2.50;;
47429;SDS011;33181;49.246;7.372;2023-01-13T11:10:01;8.07;;;2.47;;
47429;SDS011;33181;49.246;7.372;2023-01-13T11:12:34;10.23;;;2.80;;
47429;SDS011;33181;49.246;7.372;2023-01-13T11:15:46;15.13;;;3.03;;
47429;SDS011;33181;49.246;7.372;2023-01-13T11:24:38;11.37;;;2.90;;
47429;SDS011;33181;49.246;7.372;2023-01-13T11:30:36;12.70;;;2.90;;
47429;SDS011;33181;49.246;7.372;2023-01-13T11:48:18;9.80;;;3.00;;
47429;SDS011;33181;49.246;7.372;2023-01-13T12:05:22;8.13;;;2.80;;
47429;SDS011;33181;49.246;7.372;2023-01-13T12:08:18;12.10;;;2.90;;
47429;SDS011;33181;49.246;7.372;2023-01-13T12:13:38;9.63;;;2.80;;
47429;SDS011;33181;49.246;7.372;2023-01-13T12:16:22;9.30;;;2.83;;
47429;SDS011;33181;49.246;7.372;2023-01-13T12:18:58;9.53;;;3.07;;
47429;SDS011;33181;49.246;7.372;2023-01-13T12:24:43;10.93;;;2.87;;
47429;SDS011;33181;49.246;7.372;2023-01-13T12:30:30;8.10;;;3.00;;
47429;SDS011;33181;49.246;7.372;2023-01-13T12:33:18;12.20;;;3.60;;
47429;SDS011;33181;49.246;7.372;2023-01-13T12:36:10;7.60;;;3.03;;
47429;SDS011;33181;49.246;7.372;2023-01-13T12:38:47;12.47;;;2.90;;
47429;SDS011;33181;49.246;7.372;2023-01-13T12:41:38;9.40;;;3.07;;
47429;SDS011;33181;49.246;7.372;2023-01-13T12:45:05;12.50;;;2.60;;
47429;SDS011;33181;49.246;7.372;2023-01-13T12:47:37;9.70;;;2.57;;
47429;SDS011;33181;49.246;7.372;2023-01-13T12:55:22;9.07;;;3.10;;
47429;SDS011;33181;49.246;7.372;2023-01-13T13:05:40;15.20;;;3.03;;
47429;SDS011;33181;49.246;7.372;2023-01-13T13:08:20;9.73;;;2.90;;
47429;SDS011;33181;49.246;7.372;2023-01-13T13:15:21;9.47;;;2.77;;
47429;SDS011;33181;49.246;7.372;2023-01-13T13:19:53;12.30;;;2.60;;
47429;SDS011;33181;49.246;7.372;2023-01-13T13:27:39;9.90;;;2.47;;
47429;SDS011;33181;49.246;7.372;2023-01-13T13:30:35;8.07;;;2.90;;
47429;SDS011;33181;49.246;7.372;2023-01-13T13:36:07;13.50;;;3.10;;
47429;SDS011;33181;49.246;7.372;2023-01-13T13:42:13;9.50;;;2.50;;
47429;SDS011;33181;49.246;7.372;2023-01-13T13:45:16;9.20;;;3.27;;
47429;SDS011;33181;49.246;7.372;2023-01-13T13:48:25;9.53;;;2.67;;
47429;SDS011;33181;49.246;7.372;2023-01-13T13:50:55;9.30;;;2.80;;
47429;SDS011;33181;49.246;7.372;2023-01-13T13:53:27;12.07;;;3.30;;
47429;SDS011;33181;49.246;7.372;2023-01-13T13:55:59;10.27;;;3.47;;
47429;SDS011;33181;49.246;7.372;2023-01-13T13:58:27;9.03;;;3.13;;
47429;SDS011;33181;49.246;7.372;2023-01-13T14:00:57;7.33;;;2.93;;
47429;SDS011;33181;49.246;7.372;2023-01-13T14:06:00;8.50;;;2.80;;
47429;SDS011;33181;49.246;7.372;2023-01-13T14:08:30;9.27;;;2.90;;
47429;SDS011;33181;49.246;7.372;2023-01-13T14:10:59;13.83;;;2.77;;
47429;SDS011;33181;49.246;7.372;2023-01-13T14:13:26;9.83;;;2.80;;
47429;SDS011;33181;49.246;7.372;2023-01-13T14:18:26;9.93;;;4.40;;
47429;SDS011;33181;49.246;7.372;2023-01-13T14:20:59;13.50;;;2.93;;
47429;SDS011;33181;49.246;7.372;2023-01-13T14:23:49;15.23;;;3.27;;
47429;SDS011;33181;49.246;7.372;2023-01-13T14:26:23;18.13;;;3.70;;
47429;SDS011;33181;49.246;7.372;2023-01-13T14:28:53;14.83;;;2.93;;
47429;SDS011;33181;49.246;7.372;2023-01-13T14:31:21;12.67;;;3.20;;
47429;SDS011;33181;49.246;7.372;2023-01-13T14:33:48;12.97;;;3.10;;
47429;SDS011;33181;49.246;7.372;2023-01-13T14:36:34;10.60;;;3.30;;
47429;SDS011;33181;49.246;7.372;2023-01-13T14:44:12;8.50;;;2.93;;
47429;SDS011;33181;49.246;7.372;2023-01-13T14:46:59;14.60;;;3.07;;
47429;SDS011;33181;49.246;7.372;2023-01-13T14:49:55;8.90;;;4.00;;
47429;SDS011;33181;49.246;7.372;2023-01-13T14:52:27;9.30;;;3.13;;
47429;SDS011;33181;49.246;7.372;2023-01-13T14:57:37;10.90;;;2.87;;
47429;SDS011;33181;49.246;7.372;2023-01-13T15:10:36;11.30;;;3.00;;
47429;SDS011;33181;49.246;7.372;2023-01-13T15:15:54;8.03;;;2.70;;
47429;SDS011;33181;49.246;7.372;2023-01-13T15:18:24;12.27;;;3.30;;
47429;SDS011;33181;49.246;7.372;2023-01-13T15:20:50;10.90;;;2.67;;
47429;SDS011;33181;49.246;7.372;2023-01-13T15:23:16;5.63;;;2.47;;
47429;SDS011;33181;49.246;7.372;2023-01-13T15:25:43;9.70;;;2.93;;
47429;SDS011;33181;49.246;7.372;2023-01-13T15:28:13;9.90;;;3.00;;
47429;SDS011;33181;49.246;7.372;2023-01-13T15:30:49;9.13;;;3.30;;
47429;SDS011;33181;49.246;7.372;2023-01-13T15:33:17;10.93;;;3.83;;
47429;SDS011;33181;49.246;7.372;2023-01-13T15:35:45;12.27;;;3.83;;
47429;SDS011;33181;49.246;7.372;2023-01-13T15:38:14;11.47;;;4.30;;
47429;SDS011;33181;49.246;7.372;2023-01-13T15:40:43;15.40;;;3.77;;
47429;SDS011;33181;49.246;7.372;2023-01-13T15:43:12;8.57;;;2.80;;
47429;SDS011;33181;49.246;7.372;2023-01-13T15:45:58;10.97;;;3.00;;
47429;SDS011;33181;49.246;7.372;2023-01-13T15:48:44;11.40;;;3.20;;
47429;SDS011;33181;49.246;7.372;2023-01-13T15:51:10;6.13;;;2.73;;
47429;SDS011;33181;49.246;7.372;2023-01-13T15:53:36;7.63;;;2.87;;
47429;SDS011;33181;49.246;7.372;2023-01-13T15:56:04;7.93;;;2.90;;
47429;SDS011;33181;49.246;7.372;2023-01-13T15:58:43;8.57;;;2.50;;
47429;SDS011;33181;49.246;7.372;2023-01-13T16:01:10;6.37;;;2.90;;
47429;SDS011;33181;49.246;7.372;2023-01-13T16:03:36;9.23;;;3.00;;
47429;SDS011;33181;49.246;7.372;2023-01-13T16:06:04;7.37;;;2.37;;
47429;SDS011;33181;49.246;7.372;2023-01-13T16:08:51;7.10;;;2.20;;
47429;SDS011;33181;49.246;7.372;2023-01-13T16:11:17;8.60;;;2.87;;
47429;SDS011;33181;49.246;7.372;2023-01-13T16:13:43;7.03;;;2.60;;
47429;SDS011;33181;49.246;7.372;2023-01-13T16:16:12;6.73;;;3.00;;
47429;SDS011;33181;49.246;7.372;2023-01-13T16:18:48;9.33;;;2.77;;
47429;SDS011;33181;49.246;7.372;2023-01-13T16:21:15;7.63;;;2.53;;
47429;SDS011;33181;49.246;7.372;2023-01-13T16:23:43;9.47;;;3.23;;
47429;SDS011;33181;49.246;7.372;2023-01-13T16:26:19;12.87;;;3.53;;
47429;SDS011;33181;49.246;7.372;2023-01-13T16:28:47;11.37;;;3.50;;
47429;SDS011;33181;49.246;7.372;2023-01-13T16:31:35;17.87;;;3.73;;
47429;SDS011;33181;49.246;7.372;2023-01-13T16:34:01;11.57;;;2.93;;
47429;SDS011;33181;49.246;7.372;2023-01-13T16:36:33;13.20;;;3.07;;
47429;SDS011;33181;49.246;7.372;2023-01-13T16:39:00;8.23;;;3.40;;
47429;SDS011;33181;49.246;7.372;2023-01-13T16:41:27;10.80;;;3.20;;
47429;SDS011;33181;49.246;7.372;2023-01-13T16:43:53;6.43;;;2.83;;
47429;SDS011;33181;49.246;7.372;2023-01-13T16:48:46;11.13;;;3.57;;
47429;SDS011;33181;49.246;7.372;2023-01-13T16:51:13;8.50;;;3.40;;
47429;SDS011;33181;49.246;7.372;2023-01-13T16:53:39;10.70;;;3.70;;
47429;SDS011;33181;49.246;7.372;2023-01-13T16:56:21;12.03;;;3.80;;
47429;SDS011;33181;49.246;7.372;2023-01-13T16:58:52;10.57;;;3.60;;
47429;SDS011;33181;49.246;7.372;2023-01-13T17:01:26;12.40;;;5.33;;
47429;SDS011;33181;49.246;7.372;2023-01-13T17:03:54;13.30;;;5.00;;
47429;SDS011;33181;49.246;7.372;2023-01-13T17:06:23;11.43;;;5.07;;
47429;SDS011;33181;49.246;7.372;2023-01-13T17:09:07;15.10;;;6.93;;
47429;SDS011;33181;49.246;7.372;2023-01-13T17:11:43;11.83;;;4.57;;
47429;SDS011;33181;49.246;7.372;2023-01-13T17:14:09;10.70;;;4.27;;
47429;SDS011;33181;49.246;7.372;2023-01-13T17:16:36;10.30;;;3.37;;
47429;SDS011;33181;49.246;7.372;2023-01-13T17:19:02;10.53;;;3.47;;
47429;SDS011;33181;49.246;7.372;2023-01-13T17:21:27;12.33;;;4.03;;
47429;SDS011;33181;49.246;7.372;2023-01-13T17:23:53;13.70;;;3.80;;
47429;SDS011;33181;49.246;7.372;2023-01-13T17:26:33;14.83;;;3.87;;
47429;SDS011;33181;49.246;7.372;2023-01-13T17:29:05;11.50;;;3.40;;
47429;SDS011;33181;49.246;7.372;2023-01-13T17:31:35;11.23;;;3.53;;
47429;SDS011;33181;49.246;7.372;2023-01-13T17:34:01;9.57;;;3.60;;
47429;SDS011;33181;49.246;7.372;2023-01-13T17:36:28;8.57;;;3.90;;
47429;SDS011;33181;49.246;7.372;2023-01-13T17:38:54;11.87;;;3.60;;
47429;SDS011;33181;49.246;7.372;2023-01-13T17:41:21;10.10;;;3.93;;
47429;SDS011;33181;49.246;7.372;2023-01-13T17:43:47;11.73;;;3.30;;
47429;SDS011;33181;49.246;7.372;2023-01-13T17:46:13;13.27;;;3.60;;
47429;SDS011;33181;49.246;7.372;2023-01-13T17:48:44;10.40;;;3.60;;
47429;SDS011;33181;49.246;7.372;2023-01-13T17:51:11;9.90;;;3.60;;
47429;SDS011;33181;49.246;7.372;2023-01-13T17:53:38;9.37;;;3.60;;
47429;SDS011;33181;49.246;7.372;2023-01-13T17:56:05;10.00;;;4.00;;
47429;SDS011;33181;49.246;7.372;2023-01-13T17:58:32;11.93;;;4.50;;
47429;SDS011;33181;49.246;7.372;2023-01-13T18:00:58;12.77;;;4.03;;